sensor_id;sensor_type;location;lat;lon;timestamp;pressure;altitude;pressure_sealevel;temperature;humidity
13456;BME280;6800;50.940;6.940;2023-01-28T00:01:39;101973.13;;;13.68;38.20
13456;BME280;6800;50.940;6.940;2023-01-28T00:05:41;101966.84;;;13.70;38.43
13456;BME280;6800;50.940;6.940;2023-01-28T00:09:42;101975.53;;;13.18;39.54
13456;BME280;6800;50.940;6.940;2023-01-28T00:13:44;101983.19;;;12.84;39.79
13456;BME280;6800;50.940;6.940;2023-01-28T00:17:45;101976.72;;;11.93;41.89
13456;BME280;6800;50.940;6.940;2023-01-28T00:21:47;101969.69;;;13.49;38.56
13456;BME280;6800;50.940;6.940;2023-01-28T00:25:48;101971.19;;;13.36;38.72
13456;BME280;6800;50.940;6.940;2023-01-28T00:29:49;101968.16;;;13.62;38.64
13456;BME280;6800;50.940;6.940;2023-01-28T00:33:52;101963.97;;;13.22;39.01
13456;BME280;6800;50.940;6.940;2023-01-28T00:37:54;101974.44;;;13.22;38.72
13456;BME280;6800;50.940;6.940;2023-01-28T00:41:55;101963.28;;;13.54;38.63
13456;BME280;6800;50.940;6.940;2023-01-28T00:45:57;101965.88;;;13.37;38.34
13456;BME280;6800;50.940;6.940;2023-01-28T00:49:58;101972.91;;;13.18;39.83
13456;BME280;6800;50.940;6.940;2023-01-28T00:53:59;101977.22;;;13.73;38.31
13456;BME280;6800;50.940;6.940;2023-01-28T00:58:01;101980.63;;;13.40;38.48
13456;BME280;6800;50.940;6.940;2023-01-28T01:02:02;101980.53;;;13.77;38.39
13456;BME280;6800;50.940;6.940;2023-01-28T01:06:14;101970.22;;;13.55;38.84
13456;BME280;6800;50.940;6.940;2023-01-28T01:10:18;101962.16;;;13.77;37.67
13456;BME280;6800;50.940;6.940;2023-01-28T01:14:19;101959.44;;;13.61;38.25
13456;BME280;6800;50.940;6.940;2023-01-28T01:18:21;101965.75;;;13.57;38.38
13456;BME280;6800;50.940;6.940;2023-01-28T01:22:22;101969.06;;;13.25;39.02
13456;BME280;6800;50.940;6.940;2023-01-28T01:26:23;101971.53;;;13.28;38.82
13456;BME280;6800;50.940;6.940;2023-01-28T01:30:27;101978.50;;;13.29;39.25
13456;BME280;6800;50.940;6.940;2023-01-28T01:34:28;101986.88;;;12.98;39.58
13456;BME280;6800;50.940;6.940;2023-01-28T01:38:30;101979.97;;;12.97;39.64
13456;BME280;6800;50.940;6.940;2023-01-28T01:42:32;101976.13;;;12.86;39.52
13456;BME280;6800;50.940;6.940;2023-01-28T01:46:40;101968.16;;;12.69;39.86
13456;BME280;6800;50.940;6.940;2023-01-28T01:50:52;101973.28;;;12.90;39.47
13456;BME280;6800;50.940;6.940;2023-01-28T01:54:58;101970.47;;;12.95;39.22
13456;BME280;6800;50.940;6.940;2023-01-28T01:59:01;101975.69;;;12.76;39.38
13456;BME280;6800;50.940;6.940;2023-01-28T02:03:03;101983.66;;;12.34;40.09
13456;BME280;6800;50.940;6.940;2023-01-28T02:07:07;101991.81;;;12.67;40.03
13456;BME280;6800;50.940;6.940;2023-01-28T02:11:09;101988.09;;;12.52;39.59
13456;BME280;6800;50.940;6.940;2023-01-28T02:15:19;101988.38;;;12.46;40.42
13456;BME280;6800;50.940;6.940;2023-01-28T02:19:26;101990.91;;;12.48;40.59
13456;BME280;6800;50.940;6.940;2023-01-28T02:23:49;101982.59;;;12.38;40.41
13456;BME280;6800;50.940;6.940;2023-01-28T02:28:25;101982.75;;;12.35;40.59
13456;BME280;6800;50.940;6.940;2023-01-28T02:36:50;101992.34;;;11.73;42.08
13456;BME280;6800;50.940;6.940;2023-01-28T02:41:01;102001.91;;;12.16;41.14
13456;BME280;6800;50.940;6.940;2023-01-28T02:45:31;101991.88;;;12.05;41.19
13456;BME280;6800;50.940;6.940;2023-01-28T02:49:54;102004.81;;;11.88;41.43
13456;BME280;6800;50.940;6.940;2023-01-28T02:54:03;102003.59;;;11.97;41.40
13456;BME280;6800;50.940;6.940;2023-01-28T03:02:45;102021.00;;;11.76;41.89
13456;BME280;6800;50.940;6.940;2023-01-28T03:06:55;102027.22;;;11.95;41.49
13456;BME280;6800;50.940;6.940;2023-01-28T03:10:58;102026.44;;;11.71;42.07
13456;BME280;6800;50.940;6.940;2023-01-28T03:15:28;102030.00;;;12.12;40.78
13456;BME280;6800;50.940;6.940;2023-01-28T03:19:51;102039.00;;;12.05;41.01
13456;BME280;6800;50.940;6.940;2023-01-28T03:24:24;102034.19;;;11.73;41.01
13456;BME280;6800;50.940;6.940;2023-01-28T03:28:48;102033.38;;;12.14;40.94
13456;BME280;6800;50.940;6.940;2023-01-28T03:33:09;102033.88;;;12.44;40.31
13456;BME280;6800;50.940;6.940;2023-01-28T03:37:31;102033.75;;;12.05;40.90
13456;BME280;6800;50.940;6.940;2023-01-28T03:41:33;102034.06;;;12.19;40.59
13456;BME280;6800;50.940;6.940;2023-01-28T03:45:34;102031.97;;;12.47;40.61
13456;BME280;6800;50.940;6.940;2023-01-28T03:49:43;102034.59;;;12.27;40.43
13456;BME280;6800;50.940;6.940;2023-01-28T03:53:49;102036.94;;;12.53;39.83
13456;BME280;6800;50.940;6.940;2023-01-28T03:57:50;102046.75;;;12.69;39.99
13456;BME280;6800;50.940;6.940;2023-01-28T04:01:51;102045.69;;;12.73;40.08
13456;BME280;6800;50.940;6.940;2023-01-28T04:05:59;102045.56;;;12.76;39.73
13456;BME280;6800;50.940;6.940;2023-01-28T04:10:00;102050.50;;;12.63;39.79
13456;BME280;6800;50.940;6.940;2023-01-28T04:14:02;102057.09;;;11.68;41.34
13456;BME280;6800;50.940;6.940;2023-01-28T04:18:03;102059.63;;;11.69;42.58
13456;BME280;6800;50.940;6.940;2023-01-28T04:22:07;102056.03;;;12.55;40.28
13456;BME280;6800;50.940;6.940;2023-01-28T04:26:10;102058.38;;;13.02;39.01
13456;BME280;6800;50.940;6.940;2023-01-28T04:30:11;102070.97;;;13.14;39.02
13456;BME280;6800;50.940;6.940;2023-01-28T04:34:13;102070.72;;;12.19;40.13
13456;BME280;6800;50.940;6.940;2023-01-28T04:38:14;102084.50;;;10.87;42.44
13456;BME280;6800;50.940;6.940;2023-01-28T04:42:16;102088.84;;;9.83;44.71
13456;BME280;6800;50.940;6.940;2023-01-28T04:46:17;102081.88;;;10.38;43.36
13456;BME280;6800;50.940;6.940;2023-01-28T04:50:19;102083.28;;;12.31;39.88
13456;BME280;6800;50.940;6.940;2023-01-28T04:54:20;102075.19;;;11.49;39.23
13456;BME280;6800;50.940;6.940;2023-01-28T04:58:22;102085.63;;;11.05;41.03
13456;BME280;6800;50.940;6.940;2023-01-28T05:02:23;102084.81;;;11.03;41.42
13456;BME280;6800;50.940;6.940;2023-01-28T05:06:24;102090.50;;;11.14;40.88
13456;BME280;6800;50.940;6.940;2023-01-28T05:10:26;102081.84;;;11.81;39.67
13456;BME280;6800;50.940;6.940;2023-01-28T05:14:28;102082.09;;;10.56;41.47
13456;BME280;6800;50.940;6.940;2023-01-28T05:18:29;102088.84;;;10.09;42.29
13456;BME280;6800;50.940;6.940;2023-01-28T05:22:31;102081.97;;;10.84;40.75
13456;BME280;6800;50.940;6.940;2023-01-28T05:26:32;102084.53;;;10.36;42.85
13456;BME280;6800;50.940;6.940;2023-01-28T05:30:34;102086.00;;;10.69;40.66
13456;BME280;6800;50.940;6.940;2023-01-28T05:34:35;102090.56;;;11.12;40.04
13456;BME280;6800;50.940;6.940;2023-01-28T05:38:37;102089.91;;;11.30;40.01
13456;BME280;6800;50.940;6.940;2023-01-28T05:42:38;102083.41;;;10.92;39.56
13456;BME280;6800;50.940;6.940;2023-01-28T05:46:39;102088.56;;;10.95;39.95
13456;BME280;6800;50.940;6.940;2023-01-28T05:50:46;102090.16;;;11.23;39.44
13456;BME280;6800;50.940;6.940;2023-01-28T05:54:47;102088.41;;;10.98;40.10
13456;BME280;6800;50.940;6.940;2023-01-28T05:58:49;102103.88;;;10.01;42.40
13456;BME280;6800;50.940;6.940;2023-01-28T06:02:51;102104.94;;;11.01;39.97
13456;BME280;6800;50.940;6.940;2023-01-28T06:06:52;102098.75;;;12.16;37.99
13456;BME280;6800;50.940;6.940;2023-01-28T06:10:54;102103.69;;;12.23;37.75
13456;BME280;6800;50.940;6.940;2023-01-28T06:14:55;102121.19;;;10.04;41.32
13456;BME280;6800;50.940;6.940;2023-01-28T06:18:56;102119.13;;;10.67;40.87
13456;BME280;6800;50.940;6.940;2023-01-28T06:22:58;102115.94;;;10.05;42.37
13456;BME280;6800;50.940;6.940;2023-01-28T06:26:59;102116.59;;;10.66;40.83
13456;BME280;6800;50.940;6.940;2023-01-28T06:31:00;102119.03;;;10.70;40.68
13456;BME280;6800;50.940;6.940;2023-01-28T06:35:02;102124.94;;;10.51;41.07
13456;BME280;6800;50.940;6.940;2023-01-28T06:39:04;102115.81;;;12.04;38.09
13456;BME280;6800;50.940;6.940;2023-01-28T06:43:05;102122.56;;;10.17;41.03
13456;BME280;6800;50.940;6.940;2023-01-28T06:47:07;102116.16;;;10.78;39.95
13456;BME280;6800;50.940;6.940;2023-01-28T06:51:09;102120.91;;;10.91;39.80
13456;BME280;6800;50.940;6.940;2023-01-28T06:55:11;102120.88;;;9.87;42.40
13456;BME280;6800;50.940;6.940;2023-01-28T06:59:12;102115.97;;;11.78;38.85
13456;BME280;6800;50.940;6.940;2023-01-28T07:03:13;102122.16;;;11.75;38.75
13456;BME280;6800;50.940;6.940;2023-01-28T07:07:15;102129.19;;;11.97;37.89
13456;BME280;6800;50.940;6.940;2023-01-28T07:11:16;102122.53;;;11.65;37.75
13456;BME280;6800;50.940;6.940;2023-01-28T07:15:18;102130.28;;;10.72;39.38
13456;BME280;6800;50.940;6.940;2023-01-28T07:19:19;102140.28;;;11.34;39.04
13456;BME280;6800;50.940;6.940;2023-01-28T07:23:21;102139.19;;;10.91;39.91
13456;BME280;6800;50.940;6.940;2023-01-28T07:27:22;102135.84;;;11.59;37.77
13456;BME280;6800;50.940;6.940;2023-01-28T07:31:24;102134.53;;;11.47;38.65
13456;BME280;6800;50.940;6.940;2023-01-28T07:35:26;102131.66;;;12.85;36.04
13456;BME280;6800;50.940;6.940;2023-01-28T07:39:28;102126.53;;;13.02;35.31
13456;BME280;6800;50.940;6.940;2023-01-28T07:43:29;102130.59;;;12.89;36.42
13456;BME280;6800;50.940;6.940;2023-01-28T07:47:30;102131.16;;;11.68;36.91
13456;BME280;6800;50.940;6.940;2023-01-28T07:51:32;102122.72;;;11.60;37.98
13456;BME280;6800;50.940;6.940;2023-01-28T07:55:34;102129.28;;;11.72;37.73
13456;BME280;6800;50.940;6.940;2023-01-28T07:59:38;102127.09;;;12.05;36.79
13456;BME280;6800;50.940;6.940;2023-01-28T08:03:39;102136.38;;;10.47;39.81
13456;BME280;6800;50.940;6.940;2023-01-28T08:07:40;102138.63;;;10.31;40.27
13456;BME280;6800;50.940;6.940;2023-01-28T08:11:42;102143.25;;;11.71;37.72
13456;BME280;6800;50.940;6.940;2023-01-28T08:15:44;102155.31;;;11.75;37.90
13456;BME280;6800;50.940;6.940;2023-01-28T08:19:46;102166.13;;;11.64;36.75
13456;BME280;6800;50.940;6.940;2023-01-28T08:23:47;102164.31;;;11.68;37.04
13456;BME280;6800;50.940;6.940;2023-01-28T08:27:48;102167.16;;;11.60;37.43
13456;BME280;6800;50.940;6.940;2023-01-28T08:31:50;102169.78;;;11.37;37.72
13456;BME280;6800;50.940;6.940;2023-01-28T08:35:51;102172.00;;;10.48;39.42
13456;BME280;6800;50.940;6.940;2023-01-28T08:39:53;102171.53;;;11.85;36.49
13456;BME280;6800;50.940;6.940;2023-01-28T08:43:54;102175.13;;;12.04;36.24
13456;BME280;6800;50.940;6.940;2023-01-28T08:48:00;102178.28;;;10.42;39.11
13456;BME280;6800;50.940;6.940;2023-01-28T08:52:02;102189.59;;;10.15;39.85
13456;BME280;6800;50.940;6.940;2023-01-28T08:56:04;102189.50;;;11.46;37.12
13456;BME280;6800;50.940;6.940;2023-01-28T09:00:07;102199.09;;;11.45;37.83
13456;BME280;6800;50.940;6.940;2023-01-28T09:04:10;102194.75;;;10.16;39.91
13456;BME280;6800;50.940;6.940;2023-01-28T09:08:13;102205.09;;;11.49;36.79
13456;BME280;6800;50.940;6.940;2023-01-28T09:12:15;102209.63;;;10.68;38.82
13456;BME280;6800;50.940;6.940;2023-01-28T09:16:17;102208.38;;;10.54;39.47
13456;BME280;6800;50.940;6.940;2023-01-28T09:20:18;102211.97;;;11.76;36.55
13456;BME280;6800;50.940;6.940;2023-01-28T09:24:20;102216.97;;;11.33;37.51
13456;BME280;6800;50.940;6.940;2023-01-28T09:28:21;102236.84;;;10.87;37.87
13456;BME280;6800;50.940;6.940;2023-01-28T09:32:22;102240.84;;;11.24;37.06
13456;BME280;6800;50.940;6.940;2023-01-28T09:36:24;102252.22;;;10.70;37.48
13456;BME280;6800;50.940;6.940;2023-01-28T09:40:32;102245.78;;;11.56;36.51
13456;BME280;6800;50.940;6.940;2023-01-28T09:44:52;102245.59;;;12.31;34.69
13456;BME280;6800;50.940;6.940;2023-01-28T09:49:02;102266.47;;;10.86;36.97
13456;BME280;6800;50.940;6.940;2023-01-28T09:53:10;102263.19;;;10.80;36.87
13456;BME280;6800;50.940;6.940;2023-01-28T09:57:19;102252.16;;;11.49;36.17
13456;BME280;6800;50.940;6.940;2023-01-28T10:01:32;102265.53;;;11.15;36.37
13456;BME280;6800;50.940;6.940;2023-01-28T10:05:58;102265.00;;;12.03;34.96
13456;BME280;6800;50.940;6.940;2023-01-28T10:10:09;102262.16;;;11.86;35.93
13456;BME280;6800;50.940;6.940;2023-01-28T10:14:31;102261.84;;;13.04;33.40
13456;BME280;6800;50.940;6.940;2023-01-28T10:18:45;102254.09;;;13.01;34.30
13456;BME280;6800;50.940;6.940;2023-01-28T10:22:57;102258.72;;;12.53;34.50
13456;BME280;6800;50.940;6.940;2023-01-28T10:27:22;102255.78;;;12.82;34.39
13456;BME280;6800;50.940;6.940;2023-01-28T10:31:33;102259.94;;;13.29;32.99
13456;BME280;6800;50.940;6.940;2023-01-28T10:35:38;102260.56;;;11.57;36.33
13456;BME280;6800;50.940;6.940;2023-01-28T10:39:41;102267.97;;;13.05;33.95
13456;BME280;6800;50.940;6.940;2023-01-28T10:43:43;102252.53;;;13.19;33.00
13456;BME280;6800;50.940;6.940;2023-01-28T10:48:06;102247.53;;;13.33;32.83
13456;BME280;6800;50.940;6.940;2023-01-28T10:52:12;102260.91;;;13.47;33.25
13456;BME280;6800;50.940;6.940;2023-01-28T10:56:27;102252.97;;;13.49;32.06
13456;BME280;6800;50.940;6.940;2023-01-28T11:00:34;102250.59;;;13.43;32.26
13456;BME280;6800;50.940;6.940;2023-01-28T11:04:37;102250.81;;;12.96;32.43
13456;BME280;6800;50.940;6.940;2023-01-28T11:08:43;102254.72;;;11.26;36.25
13456;BME280;6800;50.940;6.940;2023-01-28T11:12:54;102247.38;;;13.36;32.28
13456;BME280;6800;50.940;6.940;2023-01-28T11:16:56;102250.78;;;13.58;31.73
13456;BME280;6800;50.940;6.940;2023-01-28T11:21:06;102253.44;;;13.38;31.85
13456;BME280;6800;50.940;6.940;2023-01-28T11:29:30;102249.81;;;13.41;31.97
13456;BME280;6800;50.940;6.940;2023-01-28T11:33:43;102243.84;;;13.17;31.91
13456;BME280;6800;50.940;6.940;2023-01-28T11:37:47;102243.59;;;13.43;31.82
13456;BME280;6800;50.940;6.940;2023-01-28T11:41:48;102251.06;;;13.12;31.93
13456;BME280;6800;50.940;6.940;2023-01-28T11:50:13;102256.84;;;13.20;31.68
13456;BME280;6800;50.940;6.940;2023-01-28T12:02:57;102250.09;;;12.93;31.91
13456;BME280;6800;50.940;6.940;2023-01-28T12:15:41;102244.22;;;12.44;32.54
13456;BME280;6800;50.940;6.940;2023-01-28T12:28:47;102228.09;;;13.17;31.64
13456;BME280;6800;50.940;6.940;2023-01-28T12:37:39;102231.47;;;12.79;32.18
13456;BME280;6800;50.940;6.940;2023-01-28T12:41:49;102246.66;;;12.49;32.55
13456;BME280;6800;50.940;6.940;2023-01-28T12:45:56;102239.78;;;13.10;32.02
13456;BME280;6800;50.940;6.940;2023-01-28T12:50:10;102237.94;;;12.48;33.55
13456;BME280;6800;50.940;6.940;2023-01-28T12:54:19;102222.22;;;12.70;32.43
13456;BME280;6800;50.940;6.940;2023-01-28T12:58:53;102217.47;;;13.00;32.59
13456;BME280;6800;50.940;6.940;2023-01-28T13:03:10;102220.69;;;11.27;34.78
13456;BME280;6800;50.940;6.940;2023-01-28T13:07:34;102209.84;;;12.94;32.17
13456;BME280;6800;50.940;6.940;2023-01-28T13:11:38;102199.13;;;13.00;31.47
13456;BME280;6800;50.940;6.940;2023-01-28T13:15:40;102185.59;;;12.69;30.94
13456;BME280;6800;50.940;6.940;2023-01-28T13:19:43;102174.63;;;13.41;30.57
13456;BME280;6800;50.940;6.940;2023-01-28T13:23:48;102178.66;;;12.68;31.15
13456;BME280;6800;50.940;6.940;2023-01-28T13:32:01;102153.75;;;12.98;31.09
13456;BME280;6800;50.940;6.940;2023-01-28T13:36:18;102140.88;;;12.93;31.60
13456;BME280;6800;50.940;6.940;2023-01-28T13:40:24;102128.47;;;13.37;30.82
13456;BME280;6800;50.940;6.940;2023-01-28T13:44:30;102111.38;;;12.48;31.92
13456;BME280;6800;50.940;6.940;2023-01-28T13:48:47;102129.34;;;12.77;30.63
13456;BME280;6800;50.940;6.940;2023-01-28T13:52:58;102159.00;;;12.98;30.78
13456;BME280;6800;50.940;6.940;2023-01-28T14:01:18;102168.66;;;10.70;34.16
13456;BME280;6800;50.940;6.940;2023-01-28T14:14:40;102174.31;;;12.67;30.88
13456;BME280;6800;50.940;6.940;2023-01-28T14:18:46;102194.47;;;12.86;30.98
13456;BME280;6800;50.940;6.940;2023-01-28T14:22:49;102208.31;;;11.32;33.16
13456;BME280;6800;50.940;6.940;2023-01-28T14:27:21;102213.31;;;12.31;32.46
13456;BME280;6800;50.940;6.940;2023-01-28T14:31:27;102210.22;;;12.21;32.34
13456;BME280;6800;50.940;6.940;2023-01-28T14:35:33;102204.34;;;12.80;31.22
13456;BME280;6800;50.940;6.940;2023-01-28T14:39:44;102205.66;;;12.26;31.82
13456;BME280;6800;50.940;6.940;2023-01-28T14:43:47;102203.38;;;12.82;30.83
13456;BME280;6800;50.940;6.940;2023-01-28T14:48:22;102191.56;;;12.72;30.67
13456;BME280;6800;50.940;6.940;2023-01-28T14:57:20;102189.31;;;12.63;31.63
13456;BME280;6800;50.940;6.940;2023-01-28T15:01:28;102195.97;;;12.28;31.38
13456;BME280;6800;50.940;6.940;2023-01-28T15:05:30;102176.75;;;12.51;31.81
13456;BME280;6800;50.940;6.940;2023-01-28T15:09:32;102185.06;;;12.61;32.20
13456;BME280;6800;50.940;6.940;2023-01-28T15:13:37;102176.41;;;12.37;31.94
13456;BME280;6800;50.940;6.940;2023-01-28T15:17:39;102163.75;;;12.26;32.10
13456;BME280;6800;50.940;6.940;2023-01-28T15:21:42;102159.03;;;12.36;31.64
13456;BME280;6800;50.940;6.940;2023-01-28T15:25:45;102159.19;;;12.31;32.27
13456;BME280;6800;50.940;6.940;2023-01-28T15:29:55;102154.50;;;12.39;31.94
13456;BME280;6800;50.940;6.940;2023-01-28T15:34:11;102148.47;;;12.37;32.62
13456;BME280;6800;50.940;6.940;2023-01-28T15:38:13;102147.44;;;12.20;32.90
13456;BME280;6800;50.940;6.940;2023-01-28T15:42:20;102159.25;;;12.08;32.40
13456;BME280;6800;50.940;6.940;2023-01-28T15:46:23;102163.75;;;12.05;32.53
13456;BME280;6800;50.940;6.940;2023-01-28T15:50:24;102172.28;;;12.31;32.42
13456;BME280;6800;50.940;6.940;2023-01-28T15:54:27;102182.03;;;12.06;32.85
13456;BME280;6800;50.940;6.940;2023-01-28T15:58:30;102188.00;;;11.87;32.84
13456;BME280;6800;50.940;6.940;2023-01-28T16:02:41;102186.09;;;11.92;33.28
13456;BME280;6800;50.940;6.940;2023-01-28T16:06:43;102188.19;;;11.82;33.32
13456;BME280;6800;50.940;6.940;2023-01-28T16:10:54;102180.16;;;11.63;34.10
13456;BME280;6800;50.940;6.940;2023-01-28T16:14:58;102201.59;;;11.73;33.72
13456;BME280;6800;50.940;6.940;2023-01-28T16:19:03;102202.53;;;11.72;33.83
13456;BME280;6800;50.940;6.940;2023-01-28T16:23:26;102211.41;;;11.68;33.46
13456;BME280;6800;50.940;6.940;2023-01-28T16:27:29;102212.28;;;11.67;34.00
13456;BME280;6800;50.940;6.940;2023-01-28T16:31:31;102208.13;;;11.61;33.95
13456;BME280;6800;50.940;6.940;2023-01-28T16:35:33;102216.22;;;11.54;33.61
13456;BME280;6800;50.940;6.940;2023-01-28T16:39:54;102231.81;;;11.57;34.12
13456;BME280;6800;50.940;6.940;2023-01-28T16:43:58;102241.56;;;11.52;33.82
13456;BME280;6800;50.940;6.940;2023-01-28T16:48:03;102260.84;;;11.25;35.08
13456;BME280;6800;50.940;6.940;2023-01-28T16:52:05;102275.09;;;11.41;34.47
13456;BME280;6800;50.940;6.940;2023-01-28T16:56:11;102282.56;;;11.51;34.60
13456;BME280;6800;50.940;6.940;2023-01-28T17:00:33;102270.63;;;11.44;34.67
13456;BME280;6800;50.940;6.940;2023-01-28T17:04:36;102278.69;;;11.37;34.76
13456;BME280;6800;50.940;6.940;2023-01-28T17:08:38;102298.56;;;11.42;34.70
13456;BME280;6800;50.940;6.940;2023-01-28T17:12:40;102293.56;;;11.36;34.40
13456;BME280;6800;50.940;6.940;2023-01-28T17:16:41;102293.13;;;11.48;34.57
13456;BME280;6800;50.940;6.940;2023-01-28T17:20:43;102301.41;;;11.36;34.82
13456;BME280;6800;50.940;6.940;2023-01-28T17:24:44;102279.06;;;11.26;34.86
13456;BME280;6800;50.940;6.940;2023-01-28T17:28:52;102276.44;;;11.26;34.84
13456;BME280;6800;50.940;6.940;2023-01-28T17:32:54;102280.88;;;11.24;35.32
13456;BME280;6800;50.940;6.940;2023-01-28T17:36:55;102268.22;;;11.12;35.07
13456;BME280;6800;50.940;6.940;2023-01-28T17:41:05;102265.44;;;10.92;35.84
13456;BME280;6800;50.940;6.940;2023-01-28T17:45:06;102258.66;;;11.13;35.12
13456;BME280;6800;50.940;6.940;2023-01-28T17:49:08;102261.47;;;11.07;35.02
13456;BME280;6800;50.940;6.940;2023-01-28T17:53:10;102263.75;;;11.16;35.07
13456;BME280;6800;50.940;6.940;2023-01-28T17:57:11;102254.47;;;11.07;35.83
13456;BME280;6800;50.940;6.940;2023-01-28T18:01:12;102260.13;;;11.20;35.16
13456;BME280;6800;50.940;6.940;2023-01-28T18:05:14;102266.81;;;11.28;35.64
13456;BME280;6800;50.940;6.940;2023-01-28T18:09:17;102266.63;;;11.08;35.89
13456;BME280;6800;50.940;6.940;2023-01-28T18:13:18;102275.31;;;10.82;36.65
13456;BME280;6800;50.940;6.940;2023-01-28T18:17:20;102311.19;;;11.04;36.39
13456;BME280;6800;50.940;6.940;2023-01-28T18:21:35;102328.75;;;10.98;36.35
13456;BME280;6800;50.940;6.940;2023-01-28T18:26:01;102324.25;;;11.04;35.85
13456;BME280;6800;50.940;6.940;2023-01-28T18:30:04;102319.66;;;10.84;36.30
13456;BME280;6800;50.940;6.940;2023-01-28T18:34:05;102321.22;;;11.17;36.04
13456;BME280;6800;50.940;6.940;2023-01-28T18:38:07;102316.16;;;10.85;36.57
13456;BME280;6800;50.940;6.940;2023-01-28T18:42:08;102322.72;;;10.98;36.60
13456;BME280;6800;50.940;6.940;2023-01-28T18:46:11;102332.25;;;10.99;36.30
13456;BME280;6800;50.940;6.940;2023-01-28T18:50:13;102328.16;;;10.90;36.40
13456;BME280;6800;50.940;6.940;2023-01-28T18:54:15;102333.53;;;10.86;36.45
13456;BME280;6800;50.940;6.940;2023-01-28T18:58:16;102330.88;;;10.87;36.87
13456;BME280;6800;50.940;6.940;2023-01-28T19:02:18;102340.22;;;10.67;36.99
13456;BME280;6800;50.940;6.940;2023-01-28T19:06:19;102347.66;;;10.51;37.43
13456;BME280;6800;50.940;6.940;2023-01-28T19:10:21;102342.81;;;10.67;37.34
13456;BME280;6800;50.940;6.940;2023-01-28T19:14:24;102344.81;;;10.59;37.13
13456;BME280;6800;50.940;6.940;2023-01-28T19:18:25;102346.63;;;10.57;37.70
13456;BME280;6800;50.940;6.940;2023-01-28T19:22:26;102352.28;;;10.43;37.67
13456;BME280;6800;50.940;6.940;2023-01-28T19:26:29;102349.28;;;10.55;37.61
13456;BME280;6800;50.940;6.940;2023-01-28T19:30:33;102354.59;;;10.52;37.73
13456;BME280;6800;50.940;6.940;2023-01-28T19:34:34;102348.31;;;10.29;38.10
13456;BME280;6800;50.940;6.940;2023-01-28T19:38:36;102358.38;;;10.42;37.92
13456;BME280;6800;50.940;6.940;2023-01-28T19:42:38;102353.88;;;10.47;37.98
13456;BME280;6800;50.940;6.940;2023-01-28T19:46:39;102352.28;;;10.43;38.19
13456;BME280;6800;50.940;6.940;2023-01-28T19:50:41;102349.59;;;10.45;38.48
13456;BME280;6800;50.940;6.940;2023-01-28T19:54:43;102359.91;;;10.49;38.52
13456;BME280;6800;50.940;6.940;2023-01-28T19:58:44;102354.47;;;10.28;38.66
13456;BME280;6800;50.940;6.940;2023-01-28T20:02:49;102358.00;;;10.25;38.98
13456;BME280;6800;50.940;6.940;2023-01-28T20:06:51;102358.81;;;10.27;38.53
13456;BME280;6800;50.940;6.940;2023-01-28T20:10:52;102366.81;;;10.21;38.79
13456;BME280;6800;50.940;6.940;2023-01-28T20:14:53;102364.44;;;10.12;38.77
13456;BME280;6800;50.940;6.940;2023-01-28T20:18:57;102365.69;;;10.30;38.50
13456;BME280;6800;50.940;6.940;2023-01-28T20:22:58;102363.22;;;10.25;38.64
13456;BME280;6800;50.940;6.940;2023-01-28T20:27:00;102355.63;;;10.17;38.81
13456;BME280;6800;50.940;6.940;2023-01-28T20:31:06;102352.47;;;10.36;38.63
13456;BME280;6800;50.940;6.940;2023-01-28T20:35:08;102357.94;;;10.28;38.56
13456;BME280;6800;50.940;6.940;2023-01-28T20:39:10;102352.59;;;10.31;38.62
13456;BME280;6800;50.940;6.940;2023-01-28T20:43:11;102358.06;;;10.24;38.40
13456;BME280;6800;50.940;6.940;2023-01-28T20:47:12;102352.88;;;10.22;38.51
13456;BME280;6800;50.940;6.940;2023-01-28T20:51:19;102351.03;;;10.26;38.52
13456;BME280;6800;50.940;6.940;2023-01-28T20:55:21;102350.00;;;10.31;38.57
13456;BME280;6800;50.940;6.940;2023-01-28T20:59:22;102346.00;;;10.19;38.92
13456;BME280;6800;50.940;6.940;2023-01-28T21:03:24;102345.19;;;10.17;38.56
13456;BME280;6800;50.940;6.940;2023-01-28T21:07:26;102335.75;;;10.13;38.80
13456;BME280;6800;50.940;6.940;2023-01-28T21:11:27;102334.09;;;10.08;38.79
13456;BME280;6800;50.940;6.940;2023-01-28T21:15:29;102328.19;;;10.03;38.85
13456;BME280;6800;50.940;6.940;2023-01-28T21:19:30;102327.50;;;9.95;38.72
13456;BME280;6800;50.940;6.940;2023-01-28T21:23:31;102333.59;;;9.95;38.45
13456;BME280;6800;50.940;6.940;2023-01-28T21:27:33;102328.19;;;10.03;39.14
13456;BME280;6800;50.940;6.940;2023-01-28T21:31:37;102326.19;;;10.12;39.53
13456;BME280;6800;50.940;6.940;2023-01-28T21:35:40;102327.09;;;10.11;39.07
13456;BME280;6800;50.940;6.940;2023-01-28T21:39:42;102305.31;;;10.12;38.90
13456;BME280;6800;50.940;6.940;2023-01-28T21:43:43;102314.00;;;10.13;39.36
13456;BME280;6800;50.940;6.940;2023-01-28T21:47:45;102295.16;;;10.02;39.67
13456;BME280;6800;50.940;6.940;2023-01-28T21:51:46;102312.34;;;10.10;39.43
13456;BME280;6800;50.940;6.940;2023-01-28T21:55:47;102311.28;;;10.16;39.40
13456;BME280;6800;50.940;6.940;2023-01-28T21:59:49;102299.28;;;10.10;39.15
13456;BME280;6800;50.940;6.940;2023-01-28T22:03:51;102299.84;;;10.22;38.92
13456;BME280;6800;50.940;6.940;2023-01-28T22:07:52;102297.34;;;10.17;39.03
13456;BME280;6800;50.940;6.940;2023-01-28T22:11:53;102299.16;;;10.15;38.61
13456;BME280;6800;50.940;6.940;2023-01-28T22:15:55;102291.66;;;10.03;39.02
13456;BME280;6800;50.940;6.940;2023-01-28T22:19:56;102288.31;;;9.98;38.99
13456;BME280;6800;50.940;6.940;2023-01-28T22:23:58;102289.06;;;10.01;39.19
13456;BME280;6800;50.940;6.940;2023-01-28T22:27:59;102291.78;;;9.98;39.71
13456;BME280;6800;50.940;6.940;2023-01-28T22:32:00;102291.81;;;9.97;39.12
13456;BME280;6800;50.940;6.940;2023-01-28T22:36:11;102297.84;;;9.99;39.11
13456;BME280;6800;50.940;6.940;2023-01-28T22:40:13;102302.41;;;9.91;39.32
13456;BME280;6800;50.940;6.940;2023-01-28T22:44:14;102317.50;;;9.80;39.26
13456;BME280;6800;50.940;6.940;2023-01-28T22:48:16;102323.97;;;9.67;39.35